sensor_id;sensor_type;location;lat;lon;timestamp;temperature;humidity
71649;SHT31;70112;45.624;11.760;2023-09-08T00:00:04;21.95;61.41
71649;SHT31;70112;45.624;11.760;2023-09-08T00:02:30;21.92;61.35
71649;SHT31;70112;45.624;11.760;2023-09-08T00:04:56;21.89;61.06
71649;SHT31;70112;45.624;11.760;2023-09-08T00:07:21;21.81;61.03
71649;SHT31;70112;45.624;11.760;2023-09-08T00:09:47;21.80;61.09
71649;SHT31;70112;45.624;11.760;2023-09-08T00:12:13;21.82;61.51
71649;SHT31;70112;45.624;11.760;2023-09-08T00:14:38;21.84;61.87
71649;SHT31;70112;45.624;11.760;2023-09-08T00:17:04;21.83;62.01
71649;SHT31;70112;45.624;11.760;2023-09-08T00:19:29;21.81;62.08
71649;SHT31;70112;45.624;11.760;2023-09-08T00:21:55;21.78;62.10
71649;SHT31;70112;45.624;11.760;2023-09-08T00:24:21;21.72;62.33
71649;SHT31;70112;45.624;11.760;2023-09-08T00:26:47;21.63;62.73
71649;SHT31;70112;45.624;11.760;2023-09-08T00:29:13;21.58;62.93
71649;SHT31;70112;45.624;11.760;2023-09-08T00:31:38;21.54;62.82
71649;SHT31;70112;45.624;11.760;2023-09-08T00:34:03;21.48;62.77
71649;SHT31;70112;45.624;11.760;2023-09-08T00:36:29;21.47;62.70
71649;SHT31;70112;45.624;11.760;2023-09-08T00:38:54;21.37;62.86
71649;SHT31;70112;45.624;11.760;2023-09-08T00:41:20;21.28;63.20
71649;SHT31;70112;45.624;11.760;2023-09-08T00:43:45;21.22;63.51
71649;SHT31;70112;45.624;11.760;2023-09-08T00:46:11;21.16;63.91
71649;SHT31;70112;45.624;11.760;2023-09-08T00:48:37;21.17;64.21
71649;SHT31;70112;45.624;11.760;2023-09-08T00:51:03;21.18;64.09
71649;SHT31;70112;45.624;11.760;2023-09-08T00:53:30;21.18;63.91
71649;SHT31;70112;45.624;11.760;2023-09-08T00:55:56;21.15;63.99
71649;SHT31;70112;45.624;11.760;2023-09-08T00:58:24;21.13;64.04
71649;SHT31;70112;45.624;11.760;2023-09-08T01:00:50;21.10;64.04
71649;SHT31;70112;45.624;11.760;2023-09-08T01:03:15;21.07;64.24
71649;SHT31;70112;45.624;11.760;2023-09-08T01:05:41;21.09;64.48
71649;SHT31;70112;45.624;11.760;2023-09-08T01:08:07;21.10;64.59
71649;SHT31;70112;45.624;11.760;2023-09-08T01:10:34;21.08;64.69
71649;SHT31;70112;45.624;11.760;2023-09-08T01:13:00;21.06;64.64
71649;SHT31;70112;45.624;11.760;2023-09-08T01:15:25;21.05;64.50
71649;SHT31;70112;45.624;11.760;2023-09-08T01:17:51;21.05;64.56
71649;SHT31;70112;45.624;11.760;2023-09-08T01:20:20;21.04;64.86
71649;SHT31;70112;45.624;11.760;2023-09-08T01:25:58;21.04;65.06
71649;SHT31;70112;45.624;11.760;2023-09-08T01:28:28;21.01;65.13
71649;SHT31;70112;45.624;11.760;2023-09-08T01:30:56;21.00;65.00
71649;SHT31;70112;45.624;11.760;2023-09-08T01:33:22;20.98;64.92
71649;SHT31;70112;45.624;11.760;2023-09-08T01:35:48;20.94;65.07
71649;SHT31;70112;45.624;11.760;2023-09-08T01:38:14;20.89;65.09
71649;SHT31;70112;45.624;11.760;2023-09-08T01:40:39;20.86;65.09
71649;SHT31;70112;45.624;11.760;2023-09-08T01:43:05;20.87;65.11
71649;SHT31;70112;45.624;11.760;2023-09-08T01:45:30;20.87;65.30
71649;SHT31;70112;45.624;11.760;2023-09-08T01:47:56;20.89;65.36
71649;SHT31;70112;45.624;11.760;2023-09-08T01:50:21;20.87;65.43
71649;SHT31;70112;45.624;11.760;2023-09-08T01:52:49;20.82;65.32
71649;SHT31;70112;45.624;11.760;2023-09-08T01:55:14;20.79;65.33
71649;SHT31;70112;45.624;11.760;2023-09-08T01:57:43;20.78;65.42
71649;SHT31;70112;45.624;11.760;2023-09-08T02:00:10;20.77;65.20
71649;SHT31;70112;45.624;11.760;2023-09-08T02:02:36;20.73;65.08
71649;SHT31;70112;45.624;11.760;2023-09-08T02:05:01;20.67;65.18
71649;SHT31;70112;45.624;11.760;2023-09-08T02:07:27;20.61;65.45
71649;SHT31;70112;45.624;11.760;2023-09-08T02:09:52;20.59;65.59
71649;SHT31;70112;45.624;11.760;2023-09-08T02:12:18;20.59;65.62
71649;SHT31;70112;45.624;11.760;2023-09-08T02:14:43;20.57;65.70
71649;SHT31;70112;45.624;11.760;2023-09-08T02:17:09;20.55;65.87
71649;SHT31;70112;45.624;11.760;2023-09-08T02:19:35;20.43;65.99
71649;SHT31;70112;45.624;11.760;2023-09-08T02:22:00;20.38;65.98
71649;SHT31;70112;45.624;11.760;2023-09-08T02:24:26;20.40;65.77
71649;SHT31;70112;45.624;11.760;2023-09-08T02:26:52;20.40;65.70
71649;SHT31;70112;45.624;11.760;2023-09-08T02:29:18;20.42;65.86
71649;SHT31;70112;45.624;11.760;2023-09-08T02:31:44;20.41;65.88
71649;SHT31;70112;45.624;11.760;2023-09-08T02:34:10;20.42;65.71
71649;SHT31;70112;45.624;11.760;2023-09-08T02:36:37;20.38;65.64
71649;SHT31;70112;45.624;11.760;2023-09-08T02:39:03;20.34;65.80
71649;SHT31;70112;45.624;11.760;2023-09-08T02:41:29;20.32;65.95
71649;SHT31;70112;45.624;11.760;2023-09-08T02:43:55;20.22;66.20
71649;SHT31;70112;45.624;11.760;2023-09-08T02:46:21;20.17;66.39
71649;SHT31;70112;45.624;11.760;2023-09-08T02:48:47;20.16;66.46
71649;SHT31;70112;45.624;11.760;2023-09-08T02:51:12;20.14;66.27
71649;SHT31;70112;45.624;11.760;2023-09-08T02:53:37;20.00;66.43
71649;SHT31;70112;45.624;11.760;2023-09-08T02:56:03;19.96;66.66
71649;SHT31;70112;45.624;11.760;2023-09-08T02:58:30;19.97;66.79
71649;SHT31;70112;45.624;11.760;2023-09-08T03:01:15;19.97;66.98
71649;SHT31;70112;45.624;11.760;2023-09-08T03:03:46;19.89;67.26
71649;SHT31;70112;45.624;11.760;2023-09-08T03:06:13;19.82;67.43
71649;SHT31;70112;45.624;11.760;2023-09-08T03:08:40;19.84;67.38
71649;SHT31;70112;45.624;11.760;2023-09-08T03:11:07;19.88;67.31
71649;SHT31;70112;45.624;11.760;2023-09-08T03:13:34;19.86;67.43
71649;SHT31;70112;45.624;11.760;2023-09-08T03:16:04;19.82;67.58
71649;SHT31;70112;45.624;11.760;2023-09-08T03:18:31;19.74;67.72
71649;SHT31;70112;45.624;11.760;2023-09-08T03:20:59;19.66;67.80
71649;SHT31;70112;45.624;11.760;2023-09-08T03:23:26;19.52;68.03
71649;SHT31;70112;45.624;11.760;2023-09-08T03:25:52;19.43;68.38
71649;SHT31;70112;45.624;11.760;2023-09-08T03:28:17;19.41;68.52
71649;SHT31;70112;45.624;11.760;2023-09-08T03:30:43;19.43;68.69
71649;SHT31;70112;45.624;11.760;2023-09-08T03:33:08;19.48;68.62
71649;SHT31;70112;45.624;11.760;2023-09-08T03:35:34;19.49;68.71
71649;SHT31;70112;45.624;11.760;2023-09-08T03:37:59;19.52;68.75
71649;SHT31;70112;45.624;11.760;2023-09-08T03:40:25;19.53;68.79
71649;SHT31;70112;45.624;11.760;2023-09-08T03:42:50;19.51;68.66
71649;SHT31;70112;45.624;11.760;2023-09-08T03:45:16;19.49;68.66
71649;SHT31;70112;45.624;11.760;2023-09-08T03:47:41;19.43;68.70
71649;SHT31;70112;45.624;11.760;2023-09-08T03:50:07;19.39;68.78
71649;SHT31;70112;45.624;11.760;2023-09-08T03:52:35;19.39;68.91
71649;SHT31;70112;45.624;11.760;2023-09-08T03:55:01;19.43;69.00
71649;SHT31;70112;45.624;11.760;2023-09-08T03:57:26;19.50;68.67
71649;SHT31;70112;45.624;11.760;2023-09-08T03:59:52;19.56;68.27
71649;SHT31;70112;45.624;11.760;2023-09-08T04:02:17;19.63;67.98
71649;SHT31;70112;45.624;11.760;2023-09-08T04:04:43;19.62;67.93
71649;SHT31;70112;45.624;11.760;2023-09-08T04:07:08;19.65;68.03
71649;SHT31;70112;45.624;11.760;2023-09-08T04:09:34;19.63;68.10
71649;SHT31;70112;45.624;11.760;2023-09-08T04:12:00;19.56;68.14
71649;SHT31;70112;45.624;11.760;2023-09-08T04:14:26;19.55;68.10
71649;SHT31;70112;45.624;11.760;2023-09-08T04:16:53;19.54;68.09
71649;SHT31;70112;45.624;11.760;2023-09-08T04:19:19;19.45;68.29
71649;SHT31;70112;45.624;11.760;2023-09-08T04:21:44;19.41;68.40
71649;SHT31;70112;45.624;11.760;2023-09-08T04:24:10;19.34;68.57
71649;SHT31;70112;45.624;11.760;2023-09-08T04:26:36;19.35;68.70
71649;SHT31;70112;45.624;11.760;2023-09-08T04:29:02;19.34;68.79
71649;SHT31;70112;45.624;11.760;2023-09-08T04:31:27;19.22;68.89
71649;SHT31;70112;45.624;11.760;2023-09-08T04:33:53;19.22;69.00
71649;SHT31;70112;45.624;11.760;2023-09-08T04:36:19;19.26;68.87
71649;SHT31;70112;45.624;11.760;2023-09-08T04:38:45;19.32;68.77
71649;SHT31;70112;45.624;11.760;2023-09-08T04:41:10;19.36;68.72
71649;SHT31;70112;45.624;11.760;2023-09-08T04:43:35;19.40;68.89
71649;SHT31;70112;45.624;11.760;2023-09-08T04:46:01;19.38;68.89
71649;SHT31;70112;45.624;11.760;2023-09-08T04:48:28;19.42;68.85
71649;SHT31;70112;45.624;11.760;2023-09-08T04:50:55;19.47;68.93
71649;SHT31;70112;45.624;11.760;2023-09-08T04:53:21;19.46;68.94
71649;SHT31;70112;45.624;11.760;2023-09-08T04:55:47;19.48;69.07
71649;SHT31;70112;45.624;11.760;2023-09-08T04:58:12;19.50;69.07
71649;SHT31;70112;45.624;11.760;2023-09-08T05:00:38;19.40;69.06
71649;SHT31;70112;45.624;11.760;2023-09-08T05:03:05;19.31;69.22
71649;SHT31;70112;45.624;11.760;2023-09-08T05:05:31;19.36;69.54
71649;SHT31;70112;45.624;11.760;2023-09-08T05:07:57;19.34;69.52
71649;SHT31;70112;45.624;11.760;2023-09-08T05:10:23;19.20;69.64
71649;SHT31;70112;45.624;11.760;2023-09-08T05:12:50;19.15;69.92
71649;SHT31;70112;45.624;11.760;2023-09-08T05:15:16;19.19;70.06
71649;SHT31;70112;45.624;11.760;2023-09-08T05:17:42;19.24;70.13
71649;SHT31;70112;45.624;11.760;2023-09-08T05:20:08;19.32;70.09
71649;SHT31;70112;45.624;11.760;2023-09-08T05:22:34;19.37;70.06
71649;SHT31;70112;45.624;11.760;2023-09-08T05:25:01;19.35;70.18
71649;SHT31;70112;45.624;11.760;2023-09-08T05:27:28;19.28;70.49
71649;SHT31;70112;45.624;11.760;2023-09-08T05:29:54;19.32;70.56
71649;SHT31;70112;45.624;11.760;2023-09-08T05:32:19;19.41;70.41
71649;SHT31;70112;45.624;11.760;2023-09-08T05:34:45;19.51;70.40
71649;SHT31;70112;45.624;11.760;2023-09-08T05:37:10;19.56;70.40
71649;SHT31;70112;45.624;11.760;2023-09-08T05:39:36;19.61;70.44
71649;SHT31;70112;45.624;11.760;2023-09-08T05:42:01;19.71;70.40
71649;SHT31;70112;45.624;11.760;2023-09-08T05:44:27;19.81;70.38
71649;SHT31;70112;45.624;11.760;2023-09-08T05:46:52;19.92;70.42
71649;SHT31;70112;45.624;11.760;2023-09-08T05:49:18;20.01;70.46
71649;SHT31;70112;45.624;11.760;2023-09-08T05:51:44;20.10;70.45
71649;SHT31;70112;45.624;11.760;2023-09-08T05:54:10;20.18;70.16
71649;SHT31;70112;45.624;11.760;2023-09-08T05:56:36;20.24;69.94
71649;SHT31;70112;45.624;11.760;2023-09-08T05:59:03;20.26;69.85
71649;SHT31;70112;45.624;11.760;2023-09-08T06:01:29;20.34;69.82
71649;SHT31;70112;45.624;11.760;2023-09-08T06:03:58;20.42;69.79
71649;SHT31;70112;45.624;11.760;2023-09-08T06:06:23;20.51;69.79
71649;SHT31;70112;45.624;11.760;2023-09-08T06:08:50;20.58;69.82
71649;SHT31;70112;45.624;11.760;2023-09-08T06:11:16;20.69;69.60
71649;SHT31;70112;45.624;11.760;2023-09-08T06:13:41;20.82;69.31
71649;SHT31;70112;45.624;11.760;2023-09-08T06:16:07;20.92;69.12
71649;SHT31;70112;45.624;11.760;2023-09-08T06:18:33;21.03;68.90
71649;SHT31;70112;45.624;11.760;2023-09-08T06:21:05;21.14;68.63
71649;SHT31;70112;45.624;11.760;2023-09-08T06:23:32;21.26;68.36
71649;SHT31;70112;45.624;11.760;2023-09-08T06:25:59;21.38;68.09
71649;SHT31;70112;45.624;11.760;2023-09-08T06:28:26;21.48;67.83
71649;SHT31;70112;45.624;11.760;2023-09-08T06:30:52;21.56;67.51
71649;SHT31;70112;45.624;11.760;2023-09-08T06:33:19;21.64;67.21
71649;SHT31;70112;45.624;11.760;2023-09-08T06:35:46;21.72;66.92
71649;SHT31;70112;45.624;11.760;2023-09-08T06:38:12;21.83;66.74
71649;SHT31;70112;45.624;11.760;2023-09-08T06:40:37;21.92;66.65
71649;SHT31;70112;45.624;11.760;2023-09-08T06:43:04;22.01;66.47
71649;SHT31;70112;45.624;11.760;2023-09-08T06:45:30;22.11;66.29
71649;SHT31;70112;45.624;11.760;2023-09-08T06:47:55;22.19;66.11
71649;SHT31;70112;45.624;11.760;2023-09-08T06:50:21;22.28;65.89
71649;SHT31;70112;45.624;11.760;2023-09-08T06:52:49;22.36;65.77
71649;SHT31;70112;45.624;11.760;2023-09-08T06:55:15;22.44;65.59
71649;SHT31;70112;45.624;11.760;2023-09-08T06:57:45;22.50;65.29
71649;SHT31;70112;45.624;11.760;2023-09-08T07:00:12;22.58;65.07
71649;SHT31;70112;45.624;11.760;2023-09-08T07:02:38;22.66;64.94
71649;SHT31;70112;45.624;11.760;2023-09-08T07:05:05;22.73;64.69
71649;SHT31;70112;45.624;11.760;2023-09-08T07:07:34;22.81;64.37
71649;SHT31;70112;45.624;11.760;2023-09-08T07:10:01;22.89;64.13
71649;SHT31;70112;45.624;11.760;2023-09-08T07:12:28;22.95;63.85
71649;SHT31;70112;45.624;11.760;2023-09-08T07:14:54;23.04;63.59
71649;SHT31;70112;45.624;11.760;2023-09-08T07:17:20;23.12;63.18
71649;SHT31;70112;45.624;11.760;2023-09-08T07:19:47;23.20;62.76
71649;SHT31;70112;45.624;11.760;2023-09-08T07:22:12;23.30;62.17
71649;SHT31;70112;45.624;11.760;2023-09-08T07:24:37;23.38;61.61
71649;SHT31;70112;45.624;11.760;2023-09-08T07:27:03;23.47;61.21
71649;SHT31;70112;45.624;11.760;2023-09-08T07:29:28;23.54;60.95
71649;SHT31;70112;45.624;11.760;2023-09-08T07:31:54;23.64;60.64
71649;SHT31;70112;45.624;11.760;2023-09-08T07:34:20;23.73;60.25
71649;SHT31;70112;45.624;11.760;2023-09-08T07:36:45;23.82;59.77
71649;SHT31;70112;45.624;11.760;2023-09-08T07:39:10;23.93;59.22
71649;SHT31;70112;45.624;11.760;2023-09-08T07:41:36;24.01;58.86
71649;SHT31;70112;45.624;11.760;2023-09-08T07:44:04;24.10;58.77
71649;SHT31;70112;45.624;11.760;2023-09-08T07:46:30;24.17;58.44
71649;SHT31;70112;45.624;11.760;2023-09-08T07:48:57;24.25;58.03
71649;SHT31;70112;45.624;11.760;2023-09-08T07:51:24;24.33;57.71
71649;SHT31;70112;45.624;11.760;2023-09-08T07:53:51;24.45;57.34
71649;SHT31;70112;45.624;11.760;2023-09-08T07:56:18;24.56;57.02
71649;SHT31;70112;45.624;11.760;2023-09-08T07:58:43;24.68;56.52
71649;SHT31;70112;45.624;11.760;2023-09-08T08:01:09;24.82;56.20
71649;SHT31;70112;45.624;11.760;2023-09-08T08:03:34;24.99;55.74
71649;SHT31;70112;45.624;11.760;2023-09-08T08:06:00;25.16;54.77
71649;SHT31;70112;45.624;11.760;2023-09-08T08:08:26;25.38;54.06
71649;SHT31;70112;45.624;11.760;2023-09-08T08:10:52;25.60;53.46
71649;SHT31;70112;45.624;11.760;2023-09-08T08:13:17;25.79;52.93
71649;SHT31;70112;45.624;11.760;2023-09-08T08:15:43;25.96;52.31
71649;SHT31;70112;45.624;11.760;2023-09-08T08:18:10;26.14;51.48
71649;SHT31;70112;45.624;11.760;2023-09-08T08:20:36;26.33;50.75
71649;SHT31;70112;45.624;11.760;2023-09-08T08:23:02;26.53;49.70
71649;SHT31;70112;45.624;11.760;2023-09-08T08:25:29;26.71;48.56
71649;SHT31;70112;45.624;11.760;2023-09-08T08:27:55;26.88;48.29
71649;SHT31;70112;45.624;11.760;2023-09-08T08:30:23;27.03;47.81
71649;SHT31;70112;45.624;11.760;2023-09-08T08:32:49;27.16;47.63
71649;SHT31;70112;45.624;11.760;2023-09-08T08:35:16;27.31;46.96
71649;SHT31;70112;45.624;11.760;2023-09-08T08:37:42;27.45;46.68
71649;SHT31;70112;45.624;11.760;2023-09-08T08:40:11;27.59;46.33
71649;SHT31;70112;45.624;11.760;2023-09-08T08:42:38;27.70;45.70
71649;SHT31;70112;45.624;11.760;2023-09-08T08:45:04;27.81;45.48
71649;SHT31;70112;45.624;11.760;2023-09-08T08:47:30;27.93;45.12
71649;SHT31;70112;45.624;11.760;2023-09-08T08:49:57;28.04;44.68
71649;SHT31;70112;45.624;11.760;2023-09-08T08:52:24;28.16;44.93
71649;SHT31;70112;45.624;11.760;2023-09-08T08:54:51;28.27;44.78
71649;SHT31;70112;45.624;11.760;2023-09-08T08:57:16;28.38;44.51
71649;SHT31;70112;45.624;11.760;2023-09-08T08:59:42;28.48;44.33
71649;SHT31;70112;45.624;11.760;2023-09-08T09:02:09;28.58;44.18
71649;SHT31;70112;45.624;11.760;2023-09-08T09:04:37;28.67;43.76
71649;SHT31;70112;45.624;11.760;2023-09-08T09:07:04;28.75;43.62
71649;SHT31;70112;45.624;11.760;2023-09-08T09:09:32;28.82;43.29
71649;SHT31;70112;45.624;11.760;2023-09-08T09:11:57;28.87;42.30
71649;SHT31;70112;45.624;11.760;2023-09-08T09:14:23;28.93;42.40
71649;SHT31;70112;45.624;11.760;2023-09-08T09:16:49;29.02;42.47
71649;SHT31;70112;45.624;11.760;2023-09-08T09:19:19;29.09;42.21
71649;SHT31;70112;45.624;11.760;2023-09-08T09:21:51;29.14;41.73
71649;SHT31;70112;45.624;11.760;2023-09-08T09:24:35;29.17;41.55
71649;SHT31;70112;45.624;11.760;2023-09-08T09:27:09;29.23;41.53
71649;SHT31;70112;45.624;11.760;2023-09-08T09:29:45;29.28;41.23
71649;SHT31;70112;45.624;11.760;2023-09-08T09:32:13;29.33;40.85
71649;SHT31;70112;45.624;11.760;2023-09-08T09:34:49;29.35;40.94
71649;SHT31;70112;45.624;11.760;2023-09-08T09:37:20;29.39;40.85
71649;SHT31;70112;45.624;11.760;2023-09-08T09:39:55;29.41;40.24
71649;SHT31;70112;45.624;11.760;2023-09-08T09:42:21;29.43;40.02
71649;SHT31;70112;45.624;11.760;2023-09-08T09:44:55;29.49;40.46
71649;SHT31;70112;45.624;11.760;2023-09-08T09:47:22;29.56;40.47
71649;SHT31;70112;45.624;11.760;2023-09-08T09:49:48;29.63;40.64
71649;SHT31;70112;45.624;11.760;2023-09-08T09:52:14;29.69;40.59
71649;SHT31;70112;45.624;11.760;2023-09-08T09:54:47;29.73;40.26
71649;SHT31;70112;45.624;11.760;2023-09-08T09:57:16;29.72;38.48
71649;SHT31;70112;45.624;11.760;2023-09-08T09:59:42;29.71;38.20
71649;SHT31;70112;45.624;11.760;2023-09-08T10:02:10;29.71;38.87
71649;SHT31;70112;45.624;11.760;2023-09-08T10:04:39;29.79;39.44
71649;SHT31;70112;45.624;11.760;2023-09-08T10:07:06;29.85;39.71
71649;SHT31;70112;45.624;11.760;2023-09-08T10:09:32;29.86;39.59
71649;SHT31;70112;45.624;11.760;2023-09-08T10:12:00;29.85;39.39
71649;SHT31;70112;45.624;11.760;2023-09-08T10:14:30;29.83;39.48
71649;SHT31;70112;45.624;11.760;2023-09-08T10:17:01;29.82;39.43
71649;SHT31;70112;45.624;11.760;2023-09-08T10:19:27;29.78;38.84
71649;SHT31;70112;45.624;11.760;2023-09-08T10:21:59;29.76;38.37
71649;SHT31;70112;45.624;11.760;2023-09-08T10:24:29;29.73;38.51
71649;SHT31;70112;45.624;11.760;2023-09-08T10:29:38;29.73;39.24
71649;SHT31;70112;45.624;11.760;2023-09-08T10:32:06;29.75;39.44
71649;SHT31;70112;45.624;11.760;2023-09-08T10:34:33;29.75;39.41
71649;SHT31;70112;45.624;11.760;2023-09-08T10:37:00;29.72;39.36
71649;SHT31;70112;45.624;11.760;2023-09-08T10:39:35;29.70;39.43
71649;SHT31;70112;45.624;11.760;2023-09-08T10:44:42;29.61;38.82
71649;SHT31;70112;45.624;11.760;2023-09-08T10:47:22;29.59;38.85
71649;SHT31;70112;45.624;11.760;2023-09-08T10:49:55;29.60;38.92
71649;SHT31;70112;45.624;11.760;2023-09-08T10:52:22;29.65;37.77
71649;SHT31;70112;45.624;11.760;2023-09-08T10:54:50;29.71;38.07
71649;SHT31;70112;45.624;11.760;2023-09-08T10:57:19;29.72;38.10
71649;SHT31;70112;45.624;11.760;2023-09-08T10:59:54;29.72;38.15
71649;SHT31;70112;45.624;11.760;2023-09-08T11:02:41;29.75;38.13
71649;SHT31;70112;45.624;11.760;2023-09-08T11:05:14;29.77;38.33
71649;SHT31;70112;45.624;11.760;2023-09-08T11:07:41;29.78;38.67
71649;SHT31;70112;45.624;11.760;2023-09-08T11:10:09;29.79;39.30
71649;SHT31;70112;45.624;11.760;2023-09-08T11:12:36;29.78;39.08
71649;SHT31;70112;45.624;11.760;2023-09-08T11:15:02;29.81;38.27
71649;SHT31;70112;45.624;11.760;2023-09-08T11:17:32;29.83;38.67
71649;SHT31;70112;45.624;11.760;2023-09-08T11:19:59;29.84;39.04
71649;SHT31;70112;45.624;11.760;2023-09-08T11:22:26;29.83;39.06
71649;SHT31;70112;45.624;11.760;2023-09-08T11:24:52;29.82;39.37
71649;SHT31;70112;45.624;11.760;2023-09-08T11:27:22;29.80;38.99
71649;SHT31;70112;45.624;11.760;2023-09-08T11:29:48;29.82;39.16
71649;SHT31;70112;45.624;11.760;2023-09-08T11:32:15;29.84;38.74
71649;SHT31;70112;45.624;11.760;2023-09-08T11:34:40;29.85;39.40
71649;SHT31;70112;45.624;11.760;2023-09-08T11:37:13;29.83;39.89
71649;SHT31;70112;45.624;11.760;2023-09-08T11:39:42;29.81;39.79
71649;SHT31;70112;45.624;11.760;2023-09-08T11:42:11;29.82;39.07
71649;SHT31;70112;45.624;11.760;2023-09-08T11:44:39;29.83;38.93
71649;SHT31;70112;45.624;11.760;2023-09-08T11:47:09;29.84;39.08
71649;SHT31;70112;45.624;11.760;2023-09-08T11:49:36;29.82;38.79
71649;SHT31;70112;45.624;11.760;2023-09-08T11:52:04;29.78;39.20
71649;SHT31;70112;45.624;11.760;2023-09-08T11:54:36;29.75;39.36
71649;SHT31;70112;45.624;11.760;2023-09-08T11:57:05;29.71;39.67
71649;SHT31;70112;45.624;11.760;2023-09-08T11:59:33;29.68;39.00
71649;SHT31;70112;45.624;11.760;2023-09-08T12:02:00;29.63;38.91
71649;SHT31;70112;45.624;11.760;2023-09-08T12:04:26;29.61;39.20
71649;SHT31;70112;45.624;11.760;2023-09-08T12:06:53;29.61;38.48
71649;SHT31;70112;45.624;11.760;2023-09-08T12:09:22;29.69;37.68
71649;SHT31;70112;45.624;11.760;2023-09-08T12:11:49;29.73;37.86
71649;SHT31;70112;45.624;11.760;2023-09-08T12:14:15;29.71;38.05
71649;SHT31;70112;45.624;11.760;2023-09-08T12:16:41;29.67;38.29
71649;SHT31;70112;45.624;11.760;2023-09-08T12:19:08;29.67;38.96
71649;SHT31;70112;45.624;11.760;2023-09-08T12:21:54;29.70;38.62
71649;SHT31;70112;45.624;11.760;2023-09-08T12:27:16;29.75;36.85
71649;SHT31;70112;45.624;11.760;2023-09-08T12:32:22;29.73;37.93
71649;SHT31;70112;45.624;11.760;2023-09-08T12:34:50;29.70;38.19
71649;SHT31;70112;45.624;11.760;2023-09-08T12:37:23;29.68;38.42
71649;SHT31;70112;45.624;11.760;2023-09-08T12:39:52;29.73;38.67
71649;SHT31;70112;45.624;11.760;2023-09-08T12:42:19;29.74;39.48
71649;SHT31;70112;45.624;11.760;2023-09-08T12:44:46;29.76;38.87
71649;SHT31;70112;45.624;11.760;2023-09-08T12:47:12;29.76;38.66
71649;SHT31;70112;45.624;11.760;2023-09-08T12:49:38;29.74;38.90
71649;SHT31;70112;45.624;11.760;2023-09-08T12:52:04;29.73;38.91
71649;SHT31;70112;45.624;11.760;2023-09-08T12:54:31;29.71;38.43
71649;SHT31;70112;45.624;11.760;2023-09-08T12:56:56;29.69;38.37
71649;SHT31;70112;45.624;11.760;2023-09-08T12:59:21;29.70;38.27
71649;SHT31;70112;45.624;11.760;2023-09-08T13:01:47;29.70;38.07
71649;SHT31;70112;45.624;11.760;2023-09-08T13:04:12;29.68;38.18
71649;SHT31;70112;45.624;11.760;2023-09-08T13:06:38;29.65;38.02
71649;SHT31;70112;45.624;11.760;2023-09-08T13:09:03;29.62;37.96
71649;SHT31;70112;45.624;11.760;2023-09-08T13:11:29;29.64;37.99
71649;SHT31;70112;45.624;11.760;2023-09-08T13:13:56;29.64;37.96
71649;SHT31;70112;45.624;11.760;2023-09-08T13:16:21;29.65;38.04
71649;SHT31;70112;45.624;11.760;2023-09-08T13:18:46;29.62;38.24
71649;SHT31;70112;45.624;11.760;2023-09-08T13:21:12;29.60;38.26
71649;SHT31;70112;45.624;11.760;2023-09-08T13:23:38;29.56;38.41
71649;SHT31;70112;45.624;11.760;2023-09-08T13:26:03;29.56;38.58
71649;SHT31;70112;45.624;11.760;2023-09-08T13:28:29;29.58;38.56
71649;SHT31;70112;45.624;11.760;2023-09-08T13:30:54;29.63;38.36
71649;SHT31;70112;45.624;11.760;2023-09-08T13:33:20;29.67;38.19
71649;SHT31;70112;45.624;11.760;2023-09-08T13:35:45;29.68;38.60
71649;SHT31;70112;45.624;11.760;2023-09-08T13:38:11;29.67;38.80
71649;SHT31;70112;45.624;11.760;2023-09-08T13:40:36;29.65;39.58
71649;SHT31;70112;45.624;11.760;2023-09-08T13:43:02;29.61;39.93
71649;SHT31;70112;45.624;11.760;2023-09-08T13:45:28;29.60;40.19
71649;SHT31;70112;45.624;11.760;2023-09-08T13:47:54;29.59;39.69
71649;SHT31;70112;45.624;11.760;2023-09-08T13:50:19;29.63;39.23
71649;SHT31;70112;45.624;11.760;2023-09-08T13:52:45;29.63;39.59
71649;SHT31;70112;45.624;11.760;2023-09-08T13:55:10;29.59;38.86
71649;SHT31;70112;45.624;11.760;2023-09-08T13:57:36;29.56;38.94
71649;SHT31;70112;45.624;11.760;2023-09-08T14:00:02;29.51;39.19
71649;SHT31;70112;45.624;11.760;2023-09-08T14:02:29;29.48;39.68
71649;SHT31;70112;45.624;11.760;2023-09-08T14:04:54;29.43;40.36
71649;SHT31;70112;45.624;11.760;2023-09-08T14:07:20;29.39;40.19
71649;SHT31;70112;45.624;11.760;2023-09-08T14:09:45;29.37;39.67
71649;SHT31;70112;45.624;11.760;2023-09-08T14:12:11;29.35;39.66
71649;SHT31;70112;45.624;11.760;2023-09-08T14:14:36;29.32;39.83
71649;SHT31;70112;45.624;11.760;2023-09-08T14:17:02;29.27;40.66
71649;SHT31;70112;45.624;11.760;2023-09-08T14:19:27;29.23;40.40
71649;SHT31;70112;45.624;11.760;2023-09-08T14:21:53;29.22;40.00
71649;SHT31;70112;45.624;11.760;2023-09-08T14:24:19;29.19;40.20
71649;SHT31;70112;45.624;11.760;2023-09-08T14:26:44;29.18;39.86
71649;SHT31;70112;45.624;11.760;2023-09-08T14:29:10;29.19;39.58
71649;SHT31;70112;45.624;11.760;2023-09-08T14:31:35;29.17;39.31
71649;SHT31;70112;45.624;11.760;2023-09-08T14:34:01;29.17;39.37
71649;SHT31;70112;45.624;11.760;2023-09-08T14:36:26;29.15;39.93
71649;SHT31;70112;45.624;11.760;2023-09-08T14:38:52;29.16;39.32
71649;SHT31;70112;45.624;11.760;2023-09-08T14:41:17;29.24;39.22
71649;SHT31;70112;45.624;11.760;2023-09-08T14:43:43;29.24;39.87
71649;SHT31;70112;45.624;11.760;2023-09-08T14:46:09;29.24;40.14
71649;SHT31;70112;45.624;11.760;2023-09-08T14:48:34;29.22;39.77
71649;SHT31;70112;45.624;11.760;2023-09-08T14:51:01;29.23;39.89
71649;SHT31;70112;45.624;11.760;2023-09-08T14:53:27;29.23;39.93
71649;SHT31;70112;45.624;11.760;2023-09-08T14:55:53;29.22;39.95
71649;SHT31;70112;45.624;11.760;2023-09-08T14:58:22;29.18;40.49
71649;SHT31;70112;45.624;11.760;2023-09-08T15:00:48;29.16;40.02
71649;SHT31;70112;45.624;11.760;2023-09-08T15:03:14;29.17;39.54
71649;SHT31;70112;45.624;11.760;2023-09-08T15:05:40;29.20;39.48
71649;SHT31;70112;45.624;11.760;2023-09-08T15:08:05;29.21;39.60
71649;SHT31;70112;45.624;11.760;2023-09-08T15:10:31;29.20;39.48
71649;SHT31;70112;45.624;11.760;2023-09-08T15:12:57;29.23;39.21
71649;SHT31;70112;45.624;11.760;2023-09-08T15:15:23;29.21;39.70
71649;SHT31;70112;45.624;11.760;2023-09-08T15:17:55;29.17;39.99
71649;SHT31;70112;45.624;11.760;2023-09-08T15:20:21;29.14;39.50
71649;SHT31;70112;45.624;11.760;2023-09-08T15:22:47;29.14;39.21
71649;SHT31;70112;45.624;11.760;2023-09-08T15:25:13;29.14;39.21